createdAt,value
2023-04-19T00:00:52.189Z,8.83
2023-04-19T00:03:20.136Z,7.90
2023-04-19T00:05:48.148Z,7.13
2023-04-19T00:08:15.996Z,10.10
2023-04-19T00:10:44.050Z,7.70
2023-04-19T00:13:11.714Z,7.87
2023-04-19T00:15:40.756Z,7.77
2023-04-19T00:18:08.403Z,9.10
2023-04-19T00:20:36.315Z,9.03
2023-04-19T00:23:03.938Z,7.83
2023-04-19T00:25:31.905Z,7.23
2023-04-19T00:27:59.497Z,13.67
2023-04-19T00:30:27.164Z,8.70
2023-04-19T00:32:56.139Z,7.37
2023-04-19T00:35:23.845Z,8.13
2023-04-19T00:37:51.488Z,8.90
2023-04-19T00:40:19.136Z,8.17
2023-04-19T00:42:46.785Z,8.10
2023-04-19T00:45:14.321Z,7.50
2023-04-19T00:47:42.435Z,10.47
2023-04-19T00:50:12.495Z,8.83
2023-04-19T00:52:40.883Z,8.70
2023-04-19T00:55:09.099Z,9.03
2023-04-19T00:57:37.568Z,6.67
2023-04-19T01:00:08.262Z,7.37
2023-04-19T01:02:36.435Z,7.27
2023-04-19T01:05:04.706Z,7.10
2023-04-19T01:07:34.396Z,9.10
2023-04-19T01:10:02.096Z,9.57
2023-04-19T01:12:30.076Z,7.77
2023-04-19T01:14:58.115Z,7.13
2023-04-19T01:17:27.372Z,8.90
2023-04-19T01:20:00.596Z,7.07
2023-04-19T01:22:30.418Z,7.03
2023-04-19T01:24:58.629Z,6.63
2023-04-19T01:27:26.558Z,6.93
2023-04-19T01:29:54.216Z,8.20
2023-04-19T01:32:22.069Z,6.63
2023-04-19T01:34:50.595Z,6.73
2023-04-19T01:37:18.418Z,8.30
2023-04-19T01:39:47.688Z,8.17
2023-04-19T01:42:15.588Z,7.13
2023-04-19T01:44:43.520Z,8.73
2023-04-19T01:47:13.764Z,6.73
2023-04-19T01:49:41.697Z,7.37
2023-04-19T01:52:09.693Z,7.77
2023-04-19T01:54:37.556Z,7.90
2023-04-19T01:57:06.536Z,7.17
2023-04-19T01:59:34.115Z,7.27
2023-04-19T02:02:02.044Z,7.50
2023-04-19T02:04:29.827Z,7.87
2023-04-19T02:06:57.417Z,7.43
2023-04-19T02:09:25.127Z,8.57
2023-04-19T02:11:52.722Z,8.73
2023-04-19T02:14:21.632Z,7.50
2023-04-19T02:16:49.790Z,8.57
2023-04-19T02:19:17.962Z,7.90
2023-04-19T02:21:45.584Z,8.73
2023-04-19T02:24:13.321Z,8.90
2023-04-19T02:26:41.326Z,8.87
2023-04-19T02:29:08.998Z,8.17
2023-04-19T02:31:38.669Z,8.17
2023-04-19T02:34:06.326Z,8.37
2023-04-19T02:36:33.885Z,8.07
2023-04-19T02:39:01.439Z,10.20
2023-04-19T02:41:29.083Z,8.07
2023-04-19T02:43:56.614Z,9.10
2023-04-19T02:46:24.270Z,9.10
2023-04-19T02:48:53.242Z,9.73
2023-04-19T02:51:20.930Z,9.67
2023-04-19T02:53:48.593Z,9.43
2023-04-19T02:56:16.427Z,10.83
2023-04-19T02:58:44.044Z,8.80
2023-04-19T03:01:11.785Z,9.70
2023-04-19T03:03:39.473Z,9.30
2023-04-19T03:06:09.277Z,10.00
2023-04-19T03:08:37.367Z,9.87
2023-04-19T03:11:05.064Z,9.47
2023-04-19T03:13:32.614Z,9.80
2023-04-19T03:16:00.359Z,12.90
2023-04-19T03:18:27.926Z,9.77
2023-04-19T03:20:55.527Z,10.53
2023-04-19T03:23:24.694Z,11.23
2023-04-19T03:25:52.275Z,11.10
2023-04-19T03:28:20.192Z,11.10
2023-04-19T03:30:47.778Z,9.90
2023-04-19T03:33:15.382Z,10.37
2023-04-19T03:35:44.371Z,11.53
2023-04-19T03:38:11.975Z,10.20
2023-04-19T03:40:40.974Z,9.37
2023-04-19T03:43:08.493Z,10.67
2023-04-19T03:45:36.216Z,10.43
2023-04-19T03:48:03.891Z,10.50
2023-04-19T03:50:32.006Z,11.03
2023-04-19T03:52:59.676Z,11.00
2023-04-19T03:55:27.364Z,10.27
2023-04-19T03:57:56.296Z,10.00
2023-04-19T04:00:24.024Z,10.50
2023-04-19T04:02:51.734Z,9.63
2023-04-19T04:05:19.663Z,11.03
2023-04-19T04:07:47.293Z,10.50
2023-04-19T04:10:14.864Z,10.97
2023-04-19T04:12:42.432Z,11.97
2023-04-19T04:15:12.260Z,12.13
2023-04-19T04:17:39.863Z,11.13
2023-04-19T04:20:09.028Z,12.03
2023-04-19T04:22:37.488Z,12.07
2023-04-19T04:25:05.634Z,11.90
2023-04-19T04:27:33.328Z,11.87
2023-04-19T04:30:01.598Z,11.77
2023-04-19T04:32:31.063Z,10.83
2023-04-19T04:34:58.699Z,11.07
2023-04-19T04:37:26.265Z,14.07
2023-04-19T04:39:53.830Z,12.50
2023-04-19T04:42:21.573Z,11.57
2023-04-19T04:44:50.960Z,11.30
2023-04-19T04:47:18.590Z,11.57
2023-04-19T04:49:47.648Z,10.73
2023-04-19T04:52:15.353Z,11.07
2023-04-19T04:54:42.967Z,11.17
2023-04-19T04:57:10.725Z,11.70
2023-04-19T04:59:38.346Z,11.33
2023-04-19T05:02:06.081Z,10.67
2023-04-19T05:04:33.709Z,11.20
2023-04-19T05:07:02.732Z,12.57
2023-04-19T05:09:30.386Z,9.97
2023-04-19T05:11:58.022Z,9.63
2023-04-19T05:14:25.948Z,10.37
2023-04-19T05:16:56.098Z,10.50
2023-04-19T05:19:23.901Z,10.67
2023-04-19T05:21:51.516Z,9.63
2023-04-19T05:24:20.601Z,11.03
2023-04-19T05:26:48.265Z,10.13
2023-04-19T05:29:15.833Z,10.90
2023-04-19T05:31:43.459Z,11.17
2023-04-19T05:34:11.152Z,10.07
2023-04-19T05:36:38.700Z,11.20
2023-04-19T05:39:06.673Z,11.87
2023-04-19T05:41:35.690Z,9.77
2023-04-19T05:44:03.242Z,10.77
2023-04-19T05:46:31.087Z,11.53
2023-04-19T05:48:58.750Z,11.97
2023-04-19T05:51:28.090Z,11.70
2023-04-19T05:53:57.419Z,11.53
2023-04-19T05:56:25.315Z,14.53
2023-04-19T05:58:55.676Z,13.27
2023-04-19T06:01:23.406Z,12.37
2023-04-19T06:03:53.687Z,12.10
2023-04-19T06:06:22.863Z,11.77
2023-04-19T06:08:53.298Z,12.43
2023-04-19T06:11:26.950Z,13.23
2023-04-19T06:14:04.113Z,13.70
2023-04-19T06:16:31.807Z,12.63
2023-04-19T06:18:59.453Z,12.63
2023-04-19T06:21:27.086Z,11.63
2023-04-19T06:23:54.694Z,11.83
2023-04-19T06:26:22.484Z,12.50
2023-04-19T06:28:50.287Z,12.53
2023-04-19T06:31:19.841Z,12.87
2023-04-19T06:33:47.611Z,17.13
2023-04-19T06:36:15.239Z,12.43
2023-04-19T06:38:44.529Z,12.80
2023-04-19T06:41:12.158Z,14.40
2023-04-19T06:43:40.753Z,11.90
2023-04-19T06:46:08.705Z,11.97
2023-04-19T06:48:37.777Z,12.80
2023-04-19T06:51:05.985Z,13.07
2023-04-19T06:53:34.405Z,13.47
2023-04-19T06:56:04.151Z,11.57
2023-04-19T06:58:34.030Z,12.90
2023-04-19T07:01:03.550Z,12.07
2023-04-19T07:03:31.417Z,15.40
2023-04-19T07:06:00.834Z,13.27
2023-04-19T07:08:42.507Z,13.13
2023-04-19T07:11:16.148Z,10.30
2023-04-19T07:13:43.825Z,11.70
2023-04-19T07:16:11.466Z,10.93
2023-04-19T07:18:39.121Z,11.57
2023-04-19T07:21:08.114Z,10.70
2023-04-19T07:23:35.946Z,14.50
2023-04-19T07:26:03.602Z,10.40
2023-04-19T07:28:31.228Z,13.67
2023-04-19T07:30:59.089Z,10.03
2023-04-19T07:33:28.232Z,10.60
2023-04-19T07:35:56.639Z,11.00
2023-04-19T07:38:25.747Z,12.03
2023-04-19T07:40:53.523Z,9.70
2023-04-19T07:43:21.266Z,9.63
2023-04-19T07:45:48.893Z,9.57
2023-04-19T07:48:16.578Z,9.30
2023-04-19T07:50:44.173Z,8.63
2023-04-19T07:53:12.063Z,10.50
2023-04-19T07:55:40.996Z,11.70
2023-04-19T07:58:08.684Z,8.87
2023-04-19T08:00:37.877Z,9.67
2023-04-19T08:03:05.901Z,9.57
2023-04-19T08:05:33.685Z,7.43
2023-04-19T08:08:01.401Z,10.40
2023-04-19T08:10:30.466Z,7.93
2023-04-19T08:13:05.966Z,7.37
2023-04-19T08:18:05.953Z,7.47
2023-04-19T08:20:33.722Z,7.13
2023-04-19T08:23:07.585Z,7.67
2023-04-19T08:25:42.098Z,6.40
2023-04-19T08:28:12.408Z,6.47
2023-04-19T08:30:39.979Z,6.83
2023-04-19T08:33:07.665Z,6.70
2023-04-19T08:35:36.099Z,9.70
2023-04-19T08:38:04.822Z,9.17
2023-04-19T08:40:32.521Z,6.07
2023-04-19T08:43:00.249Z,7.23
2023-04-19T08:45:29.569Z,5.80
2023-04-19T08:48:01.324Z,5.70
2023-04-19T08:53:12.224Z,6.30
2023-04-19T08:58:30.712Z,6.63
2023-04-19T09:01:17.108Z,8.70
2023-04-19T09:04:04.715Z,8.20
2023-04-19T09:06:37.415Z,6.80
2023-04-19T09:09:33.100Z,9.33
2023-04-19T09:12:02.981Z,5.10
2023-04-19T09:14:30.709Z,7.23
2023-04-19T09:19:55.029Z,6.40
2023-04-19T09:22:22.594Z,5.73
2023-04-19T09:27:29.409Z,5.77
2023-04-19T09:29:57.394Z,8.93
2023-04-19T09:32:25.353Z,6.53
2023-04-19T09:34:56.160Z,6.10
2023-04-19T09:37:50.845Z,6.40
2023-04-19T09:40:24.274Z,5.73
2023-04-19T09:48:02.525Z,7.80
2023-04-19T09:50:32.219Z,6.33
2023-04-19T09:53:01.866Z,6.90
2023-04-19T09:55:31.692Z,5.43
2023-04-19T09:58:06.076Z,5.00
2023-04-19T10:00:41.974Z,5.73
2023-04-19T10:03:16.872Z,4.80
2023-04-19T10:05:46.618Z,5.77
2023-04-19T10:08:15.441Z,5.70
2023-04-19T10:10:45.574Z,5.43
2023-04-19T10:13:20.571Z,5.43
2023-04-19T10:15:53.900Z,8.63
2023-04-19T10:18:23.337Z,5.13
2023-04-19T10:20:54.569Z,6.87
2023-04-19T10:23:23.191Z,4.80
2023-04-19T10:25:50.798Z,4.83
2023-04-19T10:28:18.714Z,5.37
2023-04-19T10:31:04.509Z,5.30
2023-04-19T10:33:33.168Z,4.07
2023-04-19T10:36:02.847Z,4.67
2023-04-19T10:38:38.197Z,5.20
2023-04-19T10:41:13.650Z,3.43
2023-04-19T10:43:46.145Z,4.83
2023-04-19T10:46:18.810Z,5.30
2023-04-19T10:48:54.484Z,4.13
2023-04-19T10:51:24.854Z,4.17
2023-04-19T10:53:54.607Z,5.03
2023-04-19T10:56:24.145Z,4.50
2023-04-19T10:59:22.530Z,5.23
2023-04-19T11:01:55.144Z,4.53
2023-04-19T11:04:27.337Z,6.00
2023-04-19T11:07:02.620Z,4.57
2023-04-19T11:09:32.569Z,5.20
2023-04-19T11:12:02.652Z,4.57
2023-04-19T11:14:34.113Z,4.97
2023-04-19T11:17:02.390Z,6.90
2023-04-19T11:19:29.968Z,4.63
2023-04-19T11:22:00.806Z,4.27
2023-04-19T11:24:28.343Z,5.00
2023-04-19T11:26:57.999Z,4.27
2023-04-19T11:29:25.665Z,5.43
2023-04-19T11:31:53.334Z,3.63
2023-04-19T11:34:23.983Z,5.33
2023-04-19T11:36:52.218Z,6.00
2023-04-19T11:39:21.465Z,4.20
2023-04-19T11:41:49.055Z,4.23
2023-04-19T11:44:19.967Z,5.37
2023-04-19T11:47:00.899Z,4.60
2023-04-19T11:49:30.042Z,5.17
2023-04-19T11:52:05.081Z,3.93
2023-04-19T11:54:34.725Z,3.40
2023-04-19T11:57:04.568Z,4.07
2023-04-19T11:59:33.209Z,4.67
2023-04-19T12:02:07.993Z,3.97
2023-04-19T12:04:36.194Z,5.13
2023-04-19T12:07:05.171Z,3.70
2023-04-19T12:09:36.881Z,3.50
2023-04-19T12:12:04.977Z,5.07
2023-04-19T12:14:33.280Z,5.33
2023-04-19T12:17:08.652Z,3.60
2023-04-19T12:19:38.014Z,4.67
2023-04-19T12:22:09.449Z,5.57
2023-04-19T12:24:38.516Z,4.37
2023-04-19T12:27:06.085Z,3.93
2023-04-19T12:29:34.440Z,5.80
2023-04-19T12:32:02.329Z,3.70
2023-04-19T12:34:29.947Z,3.43
2023-04-19T12:36:57.858Z,4.47
2023-04-19T12:39:25.774Z,3.17
2023-04-19T12:41:54.845Z,4.93
2023-04-19T12:44:22.639Z,3.80
2023-04-19T12:46:50.358Z,3.20
2023-04-19T12:49:19.679Z,3.20
2023-04-19T12:51:47.955Z,4.40
2023-04-19T12:54:16.071Z,4.43
2023-04-19T12:56:43.676Z,3.77
2023-04-19T12:59:12.843Z,5.47
2023-04-19T13:01:40.532Z,4.87
2023-04-19T13:04:11.723Z,5.07
2023-04-19T13:06:40.930Z,2.80
2023-04-19T13:09:14.355Z,3.60
2023-04-19T13:11:42.395Z,3.40
2023-04-19T13:14:09.995Z,4.57
2023-04-19T13:16:39.013Z,3.00
2023-04-19T13:19:06.828Z,3.30
2023-04-19T13:21:34.457Z,3.87
2023-04-19T13:24:02.064Z,5.33
2023-04-19T13:26:30.000Z,4.33
2023-04-19T13:28:57.632Z,2.80
2023-04-19T13:31:25.419Z,3.53
2023-04-19T13:33:54.471Z,4.03
2023-04-19T13:36:22.198Z,3.47
2023-04-19T13:38:50.139Z,3.33
2023-04-19T13:41:17.716Z,6.70
2023-04-19T13:43:45.947Z,2.33
2023-04-19T13:46:15.313Z,3.07
2023-04-19T13:48:43.016Z,2.53
2023-04-19T13:51:11.986Z,2.83
2023-04-19T13:53:40.695Z,3.20
2023-04-19T13:56:09.361Z,2.37
2023-04-19T13:58:37.033Z,3.30
2023-04-19T14:01:04.728Z,13.70
2023-04-19T14:03:32.866Z,2.90
2023-04-19T14:06:00.584Z,5.73
2023-04-19T14:08:29.635Z,5.50
2023-04-19T14:10:57.269Z,2.23
2023-04-19T14:13:24.851Z,2.10
2023-04-19T14:15:52.472Z,3.33
2023-04-19T14:18:20.053Z,4.23
2023-04-19T14:20:47.646Z,4.27
2023-04-19T14:23:15.287Z,3.97
2023-04-19T14:25:44.203Z,4.97
2023-04-19T14:28:12.772Z,3.87
2023-04-19T14:30:40.388Z,3.67
2023-04-19T14:33:07.985Z,2.77
2023-04-19T14:35:35.674Z,1.37
2023-04-19T14:38:03.381Z,8.27
2023-04-19T14:40:31.166Z,1.43
2023-04-19T14:43:00.480Z,2.67
2023-04-19T14:45:28.464Z,3.80
2023-04-19T14:47:56.193Z,2.40
2023-04-19T14:50:23.838Z,1.30
2023-04-19T14:52:51.406Z,1.40
2023-04-19T14:55:19.220Z,2.43
2023-04-19T14:57:46.869Z,1.57
2023-04-19T15:00:16.856Z,3.77
2023-04-19T15:02:44.574Z,1.47
2023-04-19T15:05:12.547Z,1.37
2023-04-19T15:07:40.232Z,2.30
2023-04-19T15:10:08.933Z,2.13
2023-04-19T15:12:36.534Z,1.60
2023-04-19T15:15:04.673Z,1.63
2023-04-19T15:17:33.646Z,4.13
2023-04-19T15:20:01.335Z,1.67
2023-04-19T15:22:28.899Z,1.63
2023-04-19T15:24:57.714Z,2.73
2023-04-19T15:27:25.332Z,2.80
2023-04-19T15:29:53.117Z,1.47
2023-04-19T15:32:20.760Z,4.17
2023-04-19T15:34:49.731Z,1.40
2023-04-19T15:37:17.325Z,1.63
2023-04-19T15:39:45.024Z,3.60
2023-04-19T15:42:12.730Z,1.67
2023-04-19T15:44:42.724Z,1.60
2023-04-19T15:47:11.578Z,2.37
2023-04-19T15:49:40.497Z,1.60
2023-04-19T15:52:09.526Z,3.90
2023-04-19T15:54:38.508Z,1.30
2023-04-19T15:57:06.319Z,2.20
2023-04-19T15:59:33.952Z,2.10
2023-04-19T16:02:01.682Z,4.27
2023-04-19T16:04:30.743Z,1.40
2023-04-19T16:06:58.587Z,2.50
2023-04-19T16:09:28.252Z,1.60
2023-04-19T16:11:56.048Z,1.43
2023-04-19T16:14:25.465Z,1.70
2023-04-19T16:16:54.322Z,2.83
2023-04-19T16:19:24.698Z,3.47
2023-04-19T16:21:52.358Z,2.10
2023-04-19T16:24:20.004Z,1.73
2023-04-19T16:26:49.020Z,3.10
2023-04-19T16:29:16.813Z,1.77
2023-04-19T16:31:44.634Z,3.00
2023-04-19T16:34:12.222Z,3.87
2023-04-19T16:36:40.346Z,3.53
2023-04-19T16:39:07.925Z,6.83
2023-04-19T16:41:35.649Z,2.10
2023-04-19T16:44:05.268Z,3.33
2023-04-19T16:46:33.136Z,2.13
2023-04-19T16:49:01.104Z,4.27
2023-04-19T16:51:28.728Z,2.47
2023-04-19T16:53:56.587Z,5.10
2023-04-19T16:56:24.240Z,2.00
2023-04-19T16:58:51.832Z,5.83
2023-04-19T17:01:20.878Z,2.27
2023-04-19T17:03:49.090Z,2.03
2023-04-19T17:06:16.840Z,2.27
2023-04-19T17:08:44.430Z,2.07
2023-04-19T17:11:12.041Z,1.70
2023-04-19T17:13:40.094Z,2.87
2023-04-19T17:16:08.567Z,1.90
2023-04-19T17:18:37.677Z,1.60
2023-04-19T17:21:05.511Z,3.10
2023-04-19T17:23:33.128Z,1.93
2023-04-19T17:26:00.740Z,1.60
2023-04-19T17:28:28.585Z,2.40
2023-04-19T17:30:56.437Z,6.87
2023-04-19T17:33:24.517Z,3.57
2023-04-19T17:35:53.442Z,3.77
2023-04-19T17:38:21.048Z,2.87
2023-04-19T17:40:48.729Z,2.30
2023-04-19T17:43:16.389Z,4.77
2023-04-19T17:45:44.004Z,2.27
2023-04-19T17:48:11.627Z,1.90
2023-04-19T17:50:39.312Z,2.40
2023-04-19T17:53:08.249Z,2.23
2023-04-19T17:55:36.024Z,2.13
2023-04-19T17:58:03.679Z,2.43
2023-04-19T18:00:31.232Z,3.73
2023-04-19T18:02:59.045Z,4.37
2023-04-19T18:05:26.842Z,2.43
2023-04-19T18:07:54.804Z,3.17
2023-04-19T18:10:23.736Z,3.07
2023-04-19T18:12:51.285Z,4.10
2023-04-19T18:15:18.964Z,5.10
2023-04-19T18:17:46.588Z,2.50
2023-04-19T18:20:14.579Z,2.03
2023-04-19T18:22:42.206Z,5.10
2023-04-19T18:25:10.812Z,5.67
2023-04-19T18:27:39.823Z,5.90
2023-04-19T18:30:08.904Z,4.23
2023-04-19T18:32:36.592Z,3.30
2023-04-19T18:35:04.916Z,4.10
2023-04-19T18:37:32.685Z,4.63
2023-04-19T18:40:00.375Z,4.90
2023-04-19T18:42:28.111Z,6.83
2023-04-19T18:44:57.024Z,6.33
2023-04-19T18:47:26.775Z,5.60
2023-04-19T18:52:24.853Z,2.23
2023-04-19T18:54:56.081Z,5.70
2023-04-19T18:57:27.044Z,4.13
2023-04-19T18:59:57.796Z,2.63
2023-04-19T19:02:27.034Z,4.40
2023-04-19T19:04:57.615Z,2.63
2023-04-19T19:07:36.157Z,3.40
2023-04-19T19:10:16.837Z,2.03
2023-04-19T19:12:46.784Z,5.03
2023-04-19T19:15:15.807Z,3.43
2023-04-19T19:17:43.773Z,4.73
2023-04-19T19:20:12.069Z,2.73
2023-04-19T19:22:40.296Z,4.00
2023-04-19T19:25:08.402Z,3.80
2023-04-19T19:27:35.980Z,7.40
2023-04-19T19:30:03.730Z,2.37
2023-04-19T19:32:32.843Z,2.37
2023-04-19T19:35:05.329Z,2.90
2023-04-19T19:37:35.539Z,5.70
2023-04-19T19:40:05.345Z,4.60
2023-04-19T19:42:34.209Z,3.43
2023-04-19T19:45:03.199Z,2.20
2023-04-19T19:47:35.172Z,5.10
2023-04-19T19:52:35.834Z,4.83
2023-04-19T19:55:03.732Z,3.10
2023-04-19T20:00:18.071Z,4.13
2023-04-19T20:02:56.066Z,3.03
2023-04-19T20:05:24.631Z,2.63
2023-04-19T20:08:01.829Z,1.80
2023-04-19T20:10:32.784Z,4.57
2023-04-19T20:13:01.443Z,3.00
2023-04-19T20:15:30.161Z,2.60
2023-04-19T20:17:59.154Z,3.07
2023-04-19T20:20:26.757Z,2.77
2023-04-19T20:22:54.423Z,4.23
2023-04-19T20:25:21.999Z,7.40
2023-04-19T20:27:50.403Z,2.77
2023-04-19T20:30:18.074Z,2.43
2023-04-19T20:32:45.980Z,2.50
2023-04-19T20:35:15.004Z,5.60
2023-04-19T20:37:44.277Z,4.00
2023-04-19T20:40:14.544Z,4.27
2023-04-19T20:42:42.551Z,3.03
2023-04-19T20:45:10.774Z,2.97
2023-04-19T20:47:38.870Z,2.33
2023-04-19T20:50:07.216Z,5.20
2023-04-19T20:52:36.252Z,2.73
2023-04-19T20:55:03.869Z,3.07
2023-04-19T20:57:31.522Z,3.33
2023-04-19T21:00:00.196Z,3.77
2023-04-19T21:02:28.657Z,3.20
2023-04-19T21:04:56.295Z,3.03
2023-04-19T21:07:23.811Z,3.23
2023-04-19T21:09:52.869Z,2.60
2023-04-19T21:12:20.823Z,3.50
2023-04-19T21:14:49.813Z,3.13
2023-04-19T21:17:17.352Z,2.23
2023-04-19T21:19:45.009Z,3.57
2023-04-19T21:22:12.564Z,2.83
2023-04-19T21:24:40.135Z,2.47
2023-04-19T21:27:09.093Z,2.43
2023-04-19T21:29:36.797Z,3.93
2023-04-19T21:32:05.538Z,2.50
2023-04-19T21:34:33.476Z,2.47
2023-04-19T21:37:01.106Z,3.27
2023-04-19T21:39:29.069Z,3.33
2023-04-19T21:41:57.699Z,5.33
2023-04-19T21:44:26.699Z,4.57
2023-04-19T21:46:54.602Z,2.50
2023-04-19T21:49:22.365Z,2.93
2023-04-19T21:51:51.197Z,5.17
2023-04-19T21:54:30.586Z,4.77
2023-04-19T21:57:01.454Z,3.20
2023-04-19T21:59:31.458Z,5.00
2023-04-19T22:01:59.762Z,3.40
2023-04-19T22:04:31.080Z,3.60
2023-04-19T22:07:01.825Z,2.83
2023-04-19T22:09:29.790Z,4.77
2023-04-19T22:11:57.652Z,3.27
2023-04-19T22:14:28.268Z,4.33
2023-04-19T22:16:57.414Z,4.53
2023-04-19T22:19:25.506Z,3.00
2023-04-19T22:21:55.153Z,2.17
2023-04-19T22:24:23.372Z,2.87
2023-04-19T22:26:53.069Z,5.43
2023-04-19T22:29:21.388Z,4.67
2023-04-19T22:31:49.157Z,3.03
2023-04-19T22:34:18.762Z,5.40
2023-04-19T22:36:47.481Z,5.60
2023-04-19T22:39:15.925Z,2.30
2023-04-19T22:41:44.073Z,3.33
2023-04-19T22:44:11.810Z,4.60
2023-04-19T22:46:39.589Z,4.77
2023-04-19T22:49:07.777Z,6.03
2023-04-19T22:51:38.375Z,4.50
2023-04-19T22:54:06.160Z,6.40
2023-04-19T22:56:34.046Z,6.90
2023-04-19T22:59:01.627Z,5.90
2023-04-19T23:01:29.345Z,3.83
2023-04-19T23:03:57.096Z,6.70
2023-04-19T23:06:24.918Z,2.80
2023-04-19T23:08:54.743Z,3.70
2023-04-19T23:11:24.820Z,4.80
2023-04-19T23:13:54.115Z,7.63
2023-04-19T23:16:22.503Z,3.97
2023-04-19T23:18:50.436Z,4.47
2023-04-19T23:21:18.286Z,3.13
2023-04-19T23:23:46.197Z,5.60
2023-04-19T23:26:16.116Z,3.50
2023-04-19T23:28:44.380Z,6.53
2023-04-19T23:31:12.096Z,3.27
2023-04-19T23:33:39.760Z,7.80
2023-04-19T23:36:07.894Z,4.57
2023-04-19T23:38:35.735Z,3.33
2023-04-19T23:41:03.536Z,5.00
2023-04-19T23:43:32.578Z,2.97
2023-04-19T23:46:00.246Z,3.87
2023-04-19T23:48:27.817Z,4.07
2023-04-19T23:50:55.651Z,7.13
2023-04-19T23:53:23.345Z,2.60
2023-04-19T23:55:50.989Z,3.87
2023-04-19T23:58:18.658Z,4.10
